Time;durP1;ratioP1;P1;durP2;ratioP2;P2;SDS_P1;SDS_P2;PMS_P1;PMS_P2;Temp;Humidity;BMP_temperature;BMP_pressure;BME280_temperature;BME280_humidity;BME280_pressure;Samples;Min_cycle;Max_cycle;Signal;HPM_P1;HPM_P2
2022/03/10 00:00:22;;;;;;;6.32;5.72;;;21.30;62.10;;;;;;6050854;28;93910;-66
2022/03/10 00:03:24;;;;;;;6.72;6.13;;;21.30;62.20;;;;;;6034003;28;95070;-66
2022/03/10 00:06:28;;;;;;;7.50;6.80;;;21.30;62.20;;;;;;6048122;28;95510;-66
2022/03/10 00:09:30;;;;;;;7.55;6.60;;;21.30;62.10;;;;;;6047290;28;93365;-66
2022/03/10 00:12:33;;;;;;;7.85;7.05;;;21.30;62.20;;;;;;6053607;28;94472;-66
2022/03/10 00:15:35;;;;;;;7.45;6.75;;;21.30;62.20;;;;;;6033427;28;94164;-67
2022/03/10 00:18:37;;;;;;;7.88;7.07;;;21.30;63.10;;;;;;6034595;28;93496;-66
2022/03/10 00:21:41;;;;;;;8.40;7.60;;;21.30;62.20;;;;;;6052039;28;93399;-66
2022/03/10 00:24:43;;;;;;;8.48;7.68;;;21.30;62.30;;;;;;6055744;28;92560;-67
2022/03/10 00:27:46;;;;;;;9.30;7.93;;;21.30;62.40;;;;;;6037536;28;93379;-66
2022/03/10 00:30:48;;;;;;;8.75;7.85;;;21.20;62.30;;;;;;6056727;28;94122;-66
2022/03/10 00:33:50;;;;;;;8.80;7.90;;;21.20;62.40;;;;;;6056948;28;93917;-67
2022/03/10 00:36:54;;;;;;;8.57;7.75;;;21.20;62.40;;;;;;6047034;28;93917;-66
2022/03/10 00:39:56;;;;;;;8.90;8.00;;;21.20;62.40;;;;;;6057602;28;92963;-66
2022/03/10 00:42:58;;;;;;;9.45;8.40;;;21.20;62.50;;;;;;6047901;28;93831;-66
2022/03/10 00:46:00;;;;;;;9.38;8.38;;;21.20;62.40;;;;;;6046070;28;94114;-66
2022/03/10 00:49:02;;;;;;;9.27;8.38;;;21.20;62.40;;;;;;6054859;28;94261;-67
2022/03/10 00:52:06;;;;;;;8.77;7.88;;;21.20;62.40;;;;;;6039555;28;93977;-66
2022/03/10 00:55:10;;;;;;;9.10;8.20;;;21.20;62.40;;;;;;6041703;28;92632;-66
2022/03/10 00:58:12;;;;;;;9.13;8.20;;;21.20;62.40;;;;;;6048330;28;93989;-66
2022/03/10 01:01:14;;;;;;;9.02;8.15;;;21.20;62.40;;;;;;6047025;28;92915;-66
2022/03/10 01:04:16;;;;;;;9.57;8.65;;;21.20;62.30;;;;;;6057482;28;95362;-66
2022/03/10 01:07:19;;;;;;;10.10;9.05;;;21.20;62.40;;;;;;6036278;28;94136;-66
2022/03/10 01:10:22;;;;;;;9.57;8.57;;;21.20;62.40;;;;;;6053454;28;92875;-66
2022/03/10 01:13:24;;;;;;;10.15;9.15;;;21.20;62.40;;;;;;6045473;28;94151;-66
2022/03/10 01:16:26;;;;;;;10.30;9.30;;;21.20;62.40;;;;;;6055816;28;93175;-66
2022/03/10 01:19:29;;;;;;;9.32;8.32;;;21.20;62.50;;;;;;6071196;28;93982;-66
2022/03/10 01:22:32;;;;;;;9.60;8.60;;;21.20;62.50;;;;;;6058871;28;94502;-66
2022/03/10 01:25:34;;;;;;;10.15;9.05;;;21.10;62.40;;;;;;6055510;28;93372;-66
2022/03/10 01:28:37;;;;;;;9.90;8.90;;;21.10;62.40;;;;;;6045512;28;94133;-66
2022/03/10 01:31:39;;;;;;;9.25;8.35;;;21.10;62.50;;;;;;6050212;28;93013;-67
2022/03/10 01:34:41;;;;;;;10.23;9.15;;;21.10;62.60;;;;;;6056314;28;95059;-66
2022/03/10 01:37:45;;;;;;;9.80;8.80;;;21.10;62.60;;;;;;6057537;28;94166;-66
2022/03/10 01:40:47;;;;;;;9.40;8.48;;;21.10;62.60;;;;;;6055078;28;94420;-66
2022/03/10 01:43:59;;;;;;;9.27;8.38;;;21.10;62.60;;;;;;6050798;28;93362;-66
2022/03/10 01:47:02;;;;;;;9.30;8.40;;;21.10;62.50;;;;;;6048932;28;93263;-67
2022/03/10 01:50:04;;;;;;;9.50;8.50;;;21.10;62.40;;;;;;6065702;28;94047;-66
2022/03/10 01:53:08;;;;;;;9.05;8.15;;;21.10;62.40;;;;;;6044048;28;94206;-66
2022/03/10 01:56:11;;;;;;;8.95;8.10;;;21.10;62.40;;;;;;6071535;28;94078;-66
2022/03/10 01:59:14;;;;;;;8.77;7.88;;;21.10;62.40;;;;;;6044934;28;94112;-66
2022/03/10 02:02:17;;;;;;;9.57;8.65;;;21.10;62.60;;;;;;6047886;28;94113;-66
2022/03/10 02:05:19;;;;;;;9.43;8.52;;;21.10;62.50;;;;;;6065973;28;95173;-67
2022/03/10 02:11:43;;;;;;;8.70;7.80;;;21.10;62.60;;;;;;6063418;28;92330;-66
2022/03/10 02:18:06;;;;;;;8.35;7.55;;;21.10;62.60;;;;;;6049853;28;92638;-66
2022/03/10 02:21:08;;;;;;;8.55;7.65;;;21.00;62.50;;;;;;6053691;28;94438;-67
2022/03/10 02:24:11;;;;;;;9.05;8.15;;;21.00;62.60;;;;;;6072494;28;94231;-66
2022/03/10 02:27:15;;;;;;;8.60;7.30;;;21.00;62.60;;;;;;6038758;28;93209;-66
2022/03/10 02:30:18;;;;;;;8.23;7.43;;;21.00;62.60;;;;;;6048645;28;93037;-66
2022/03/10 02:33:20;;;;;;;9.35;7.95;;;21.00;62.60;;;;;;6049829;28;94103;-67
2022/03/10 02:36:22;;;;;;;9.13;7.68;;;21.00;62.60;;;;;;6044125;28;95340;-66
2022/03/10 02:39:26;;;;;;;7.97;7.18;;;21.00;62.60;;;;;;6050662;28;94225;-67
2022/03/10 02:42:30;;;;;;;7.65;6.95;;;21.00;62.60;;;;;;6051492;28;94227;-66
2022/03/10 02:45:32;;;;;;;7.85;7.13;;;21.00;62.60;;;;;;6050416;28;93674;-66
2022/03/10 02:48:34;;;;;;;8.43;7.45;;;21.00;62.50;;;;;;6060015;28;94389;-67
2022/03/10 02:51:37;;;;;;;8.02;7.25;;;21.00;62.50;;;;;;6059264;28;95379;-67
2022/03/10 02:54:40;;;;;;;7.75;6.95;;;21.00;62.50;;;;;;6050688;28;94477;-67
2022/03/10 02:57:42;;;;;;;7.45;6.75;;;21.00;62.60;;;;;;6042292;28;93321;-66
2022/03/10 03:00:44;;;;;;;7.00;6.30;;;21.00;62.60;;;;;;6047617;28;93092;-67
2022/03/10 03:03:46;;;;;;;7.25;6.55;;;21.00;62.60;;;;;;6040744;28;94480;-66
2022/03/10 03:06:48;;;;;;;7.30;6.60;;;20.90;62.50;;;;;;6052876;28;95051;-66
2022/03/10 03:09:52;;;;;;;7.07;6.38;;;21.00;62.60;;;;;;6048067;28;94009;-66
2022/03/10 03:12:55;;;;;;;8.32;6.63;;;21.00;62.60;;;;;;6067547;28;94128;-66
2022/03/10 03:15:58;;;;;;;7.20;6.25;;;21.00;62.60;;;;;;6034670;28;94270;-66
2022/03/10 03:19:00;;;;;;;6.80;6.20;;;20.90;62.60;;;;;;6058588;28;94264;-67
2022/03/10 03:22:02;;;;;;;7.20;6.50;;;20.90;62.60;;;;;;6036792;28;94000;-67
2022/03/10 03:25:07;;;;;;;6.80;6.20;;;20.90;62.60;;;;;;6061443;28;94193;-67
2022/03/10 03:28:09;;;;;;;6.82;6.00;;;20.90;62.70;;;;;;6036097;28;93399;-67
2022/03/10 03:31:11;;;;;;;6.38;5.75;;;20.90;62.50;;;;;;6039154;28;94387;-67
2022/03/10 03:34:14;;;;;;;6.88;6.03;;;20.90;62.20;;;;;;6044309;28;94468;-66
2022/03/10 03:37:16;;;;;;;6.95;5.88;;;20.90;62.20;;;;;;6049922;28;95374;-66
2022/03/10 03:40:19;;;;;;;7.00;6.30;;;20.90;62.30;;;;;;6044948;28;94472;-67
2022/03/10 03:43:21;;;;;;;6.40;5.68;;;20.90;62.40;;;;;;6037682;28;94493;-67
2022/03/10 03:46:23;;;;;;;7.22;6.18;;;20.90;62.40;;;;;;6035955;28;94487;-67
2022/03/10 03:49:25;;;;;;;6.53;5.93;;;20.90;62.40;;;;;;6047096;28;94407;-67
2022/03/10 03:52:27;;;;;;;6.55;5.95;;;20.90;62.40;;;;;;6043054;28;94157;-67
2022/03/10 03:55:31;;;;;;;6.60;6.00;;;20.90;62.50;;;;;;6062558;28;94043;-67
2022/03/10 03:58:33;;;;;;;6.32;5.72;;;20.90;62.60;;;;;;6060751;28;92627;-66
2022/03/10 04:01:35;;;;;;;6.60;5.95;;;20.90;62.50;;;;;;6034617;28;94628;-67
2022/03/10 04:04:37;;;;;;;7.57;6.28;;;20.80;62.50;;;;;;6060217;28;94044;-67
2022/03/10 04:07:40;;;;;;;6.82;6.22;;;20.90;62.60;;;;;;6049494;28;95056;-66
2022/03/10 04:10:43;;;;;;;7.65;6.95;;;20.80;62.60;;;;;;6045409;28;94403;-66
2022/03/10 04:13:46;;;;;;;7.25;6.55;;;20.80;62.60;;;;;;6055854;28;94160;-66
2022/03/10 04:16:48;;;;;;;7.50;6.70;;;20.80;62.60;;;;;;6041122;28;94059;-66
2022/03/10 04:19:50;;;;;;;7.50;6.68;;;20.80;62.60;;;;;;6055017;28;94650;-66
2022/03/10 04:22:52;;;;;;;7.68;6.97;;;20.80;62.60;;;;;;6051202;28;94263;-66
2022/03/10 04:25:56;;;;;;;7.30;6.60;;;20.80;62.70;;;;;;6065801;28;94205;-66
2022/03/10 04:28:58;;;;;;;7.45;6.70;;;20.90;62.70;;;;;;6054628;28;93401;-66
2022/03/10 04:32:00;;;;;;;7.38;6.68;;;20.90;62.70;;;;;;6046432;28;94007;-66
2022/03/10 04:35:02;;;;;;;7.65;6.95;;;20.90;62.70;;;;;;6035304;28;94257;-66
2022/03/10 04:38:04;;;;;;;8.60;7.45;;;20.90;62.80;;;;;;6044382;28;95202;-66
2022/03/10 04:41:08;;;;;;;8.93;7.78;;;20.90;62.80;;;;;;6050540;28;94209;-66
2022/03/10 04:44:10;;;;;;;8.20;7.43;;;20.90;62.80;;;;;;6054412;28;94178;-66
2022/03/10 04:47:12;;;;;;;8.25;7.45;;;20.90;62.90;;;;;;6044206;28;94153;-66
2022/03/10 04:50:16;;;;;;;7.90;7.10;;;20.90;62.80;;;;;;6046839;28;94183;-67
2022/03/10 04:53:18;;;;;;;8.23;7.43;;;20.90;62.80;;;;;;6055050;28;94314;-66
2022/03/10 04:56:22;;;;;;;8.48;7.68;;;20.90;62.80;;;;;;6044568;28;93023;-66
2022/03/10 04:59:25;;;;;;;8.27;7.47;;;20.90;62.90;;;;;;6057225;28;93395;-66
2022/03/10 05:02:27;;;;;;;8.02;7.30;;;20.90;62.80;;;;;;6041819;28;94023;-66
2022/03/10 05:05:29;;;;;;;7.85;7.15;;;20.90;62.90;;;;;;6041017;28;94126;-66
2022/03/10 05:08:31;;;;;;;9.00;8.18;;;20.90;62.90;;;;;;6045356;28;95003;-66
2022/03/10 05:11:34;;;;;;;7.97;7.22;;;20.90;62.90;;;;;;6055833;28;94111;-66
2022/03/10 05:14:37;;;;;;;8.27;7.47;;;20.90;62.90;;;;;;6050402;28;94181;-67
2022/03/10 05:17:39;;;;;;;7.85;7.15;;;20.90;63.80;;;;;;6050466;28;94232;-66
2022/03/10 05:20:41;;;;;;;8.55;7.68;;;20.90;62.90;;;;;;6057422;28;94599;-67
2022/03/10 05:23:43;;;;;;;7.90;7.20;;;20.90;62.80;;;;;;6060485;28;94445;-66
2022/03/10 05:26:47;;;;;;;8.18;7.38;;;20.90;62.90;;;;;;6049597;28;92189;-67
2022/03/10 05:29:49;;;;;;;7.93;7.20;;;20.90;62.90;;;;;;6056846;28;93503;-66
2022/03/10 05:32:51;;;;;;;8.57;7.57;;;20.90;62.70;;;;;;6058145;28;94094;-66
2022/03/10 05:35:53;;;;;;;7.80;7.10;;;20.90;62.70;;;;;;6054896;28;94329;-66
2022/03/10 05:38:56;;;;;;;8.25;7.45;;;20.90;62.70;;;;;;6044550;28;94973;-67
2022/03/10 05:41:59;;;;;;;7.75;7.03;;;20.90;62.70;;;;;;6041005;28;94158;-66
2022/03/10 05:45:01;;;;;;;8.05;7.35;;;20.90;62.90;;;;;;6047102;28;94076;-66
2022/03/10 05:48:03;;;;;;;7.47;6.78;;;20.90;62.60;;;;;;6042408;28;94067;-66
2022/03/10 05:51:05;;;;;;;7.57;6.88;;;20.90;62.60;;;;;;6048999;28;94359;-66
2022/03/10 05:54:07;;;;;;;7.60;6.88;;;20.90;62.60;;;;;;6046702;28;93106;-66
2022/03/10 05:57:11;;;;;;;7.22;6.55;;;21.00;62.80;;;;;;6044803;28;94148;-65
2022/03/10 06:00:14;;;;;;;7.90;7.10;;;21.00;62.80;;;;;;6042349;28;93377;-67
2022/03/10 06:03:19;;;;;;;8.10;7.18;;;21.00;63.60;;;;;;6058203;28;94076;-67
2022/03/10 06:06:21;;;;;;;7.80;7.10;;;21.00;66.10;;;;;;6056887;28;94239;-67
2022/03/10 06:09:23;;;;;;;8.07;7.28;;;21.10;65.20;;;;;;6040343;28;93941;-67
2022/03/10 06:12:28;;;;;;;7.80;7.00;;;21.10;64.60;;;;;;6050539;28;94281;-67
2022/03/10 06:15:30;;;;;;;7.70;6.80;;;21.10;64.10;;;;;;6048554;28;93961;-65
2022/03/10 06:18:32;;;;;;;16.20;8.43;;;21.10;64.10;;;;;;6045436;28;94094;-66
2022/03/10 06:21:34;;;;;;;12.27;7.07;;;21.10;66.30;;;;;;6037505;28;93227;-66
2022/03/10 06:24:36;;;;;;;8.88;6.72;;;21.10;66.10;;;;;;6061491;28;93108;-66
2022/03/10 06:27:40;;;;;;;9.50;7.07;;;21.20;65.90;;;;;;6051921;28;94084;-67
2022/03/10 06:30:42;;;;;;;14.13;7.70;;;21.20;65.80;;;;;;6060132;28;93387;-66
2022/03/10 06:33:44;;;;;;;11.95;8.38;;;21.20;66.00;;;;;;6047090;28;94481;-66
2022/03/10 06:36:46;;;;;;;13.75;8.50;;;21.20;66.20;;;;;;6043632;28;93087;-66
2022/03/10 06:39:48;;;;;;;15.00;8.95;;;21.20;66.70;;;;;;6055942;28;95007;-66
2022/03/10 06:42:52;;;;;;;19.02;9.27;;;21.20;67.00;;;;;;6035301;28;94295;-66
2022/03/10 06:45:54;;;;;;;14.27;8.40;;;21.20;67.00;;;;;;6037228;28;94097;-67
2022/03/10 06:48:56;;;;;;;15.57;9.88;;;21.20;66.90;;;;;;6049793;28;94278;-67
2022/03/10 06:51:58;;;;;;;15.38;8.60;;;21.20;67.10;;;;;;6058638;28;94212;-67
2022/03/10 06:55:00;;;;;;;14.00;8.00;;;21.20;67.00;;;;;;6052926;28;94278;-66
2022/03/10 06:58:04;;;;;;;9.68;7.25;;;21.20;66.60;;;;;;6038458;28;94262;-67
2022/03/10 07:01:06;;;;;;;9.75;6.78;;;21.20;66.40;;;;;;6058403;28;92326;-66
2022/03/10 07:04:08;;;;;;;11.75;7.32;;;21.20;65.00;;;;;;6041806;28;94095;-66
2022/03/10 07:07:11;;;;;;;12.48;7.40;;;21.20;63.80;;;;;;6060251;28;94121;-67
2022/03/10 07:10:13;;;;;;;13.77;8.38;;;21.20;64.10;;;;;;6038805;28;95110;-66
2022/03/10 07:13:36;;;;;;;16.65;9.45;;;21.10;64.90;;;;;;6049532;28;94004;-67
2022/03/10 07:16:38;;;;;;;19.15;9.88;;;21.20;66.30;;;;;;6041042;28;94054;-66
2022/03/10 07:19:40;;;;;;;18.50;9.52;;;21.20;67.00;;;;;;6034769;28;92984;-66
2022/03/10 07:22:42;;;;;;;15.80;8.50;;;21.20;67.50;;;;;;6056407;28;94558;-67
2022/03/10 07:25:44;;;;;;;13.95;7.90;;;21.20;67.60;;;;;;6052820;28;94115;-66
2022/03/10 07:28:48;;;;;;;12.55;7.93;;;21.20;67.50;;;;;;6037942;28;94326;-66
2022/03/10 07:31:50;;;;;;;10.40;6.82;;;21.20;67.20;;;;;;6059833;28;93464;-66
2022/03/10 07:34:53;;;;;;;11.52;6.97;;;21.20;66.30;;;;;;6043865;28;94306;-66
2022/03/10 07:37:58;;;;;;;11.10;7.00;;;21.30;66.20;;;;;;6059756;28;94113;-66
2022/03/10 07:41:00;;;;;;;8.95;6.43;;;21.20;65.70;;;;;;6050311;28;95029;-67
2022/03/10 07:44:03;;;;;;;10.85;6.45;;;21.20;66.10;;;;;;6057751;28;94118;-66
2022/03/10 07:47:15;;;;;;;9.75;6.85;;;21.20;65.50;;;;;;6256097;28;80258;-65
2022/03/10 07:50:17;;;;;;;8.65;6.60;;;21.30;72.10;;;;;;6232284;28;82347;-65
2022/03/10 07:53:19;;;;;;;8.55;6.07;;;21.40;75.40;;;;;;6231136;28;80902;-67
2022/03/10 07:56:21;;;;;;;10.20;6.20;;;21.50;74.30;;;;;;6227055;28;82918;-67
2022/03/10 07:59:23;;;;;;;8.20;5.95;;;21.60;72.90;;;;;;6230625;28;82205;-67
2022/03/10 08:02:27;;;;;;;9.93;6.10;;;21.70;71.80;;;;;;6230517;28;82120;-67
2022/03/10 08:05:29;;;;;;;10.50;5.97;;;21.80;70.50;;;;;;6231256;28;81195;-67
2022/03/10 08:08:31;;;;;;;7.53;5.68;;;21.80;69.20;;;;;;6229651;28;81542;-67
2022/03/10 08:11:34;;;;;;;9.05;5.65;;;21.80;68.40;;;;;;6228894;28;82299;-67
2022/03/10 08:14:36;;;;;;;7.35;5.88;;;21.70;68.10;;;;;;6231747;28;82210;-67
2022/03/10 08:17:40;;;;;;;8.95;5.75;;;21.70;67.70;;;;;;6217882;28;82327;-67
2022/03/10 08:20:42;;;;;;;8.20;5.68;;;21.70;67.40;;;;;;6229116;28;82382;-67
2022/03/10 08:23:44;;;;;;;7.25;5.20;;;21.70;67.40;;;;;;6230937;28;82233;-67
2022/03/10 08:26:46;;;;;;;7.20;5.53;;;21.70;67.50;;;;;;6232005;28;82322;-67
2022/03/10 08:29:48;;;;;;;6.55;4.95;;;21.70;67.70;;;;;;6222002;28;82270;-67
2022/03/10 08:32:51;;;;;;;6.53;5.18;;;21.70;67.70;;;;;;6226227;28;82309;-67
2022/03/10 08:35:54;;;;;;;6.15;4.90;;;21.70;67.80;;;;;;6231947;28;82117;-67
2022/03/10 08:38:56;;;;;;;8.40;5.38;;;21.60;67.90;;;;;;6231163;28;82369;-67
2022/03/10 08:41:59;;;;;;;6.32;4.63;;;21.70;68.10;;;;;;6229808;28;82367;-67
2022/03/10 08:45:01;;;;;;;6.25;5.10;;;21.60;68.10;;;;;;6226834;28;82395;-67
2022/03/10 08:48:06;;;;;;;5.88;4.95;;;21.60;68.30;;;;;;6229130;28;82264;-67
2022/03/10 08:51:08;;;;;;;6.07;4.72;;;21.60;68.40;;;;;;6229718;28;81311;-67
2022/03/10 08:54:11;;;;;;;5.57;4.93;;;21.60;68.50;;;;;;6215209;28;82259;-67
2022/03/10 08:57:13;;;;;;;5.43;4.85;;;21.60;68.60;;;;;;6220516;28;82302;-67
2022/03/10 09:00:16;;;;;;;5.78;4.68;;;21.60;68.80;;;;;;6212537;28;82329;-67
2022/03/10 09:03:19;;;;;;;6.05;4.95;;;21.60;68.80;;;;;;6213326;28;82351;-67
2022/03/10 09:06:21;;;;;;;4.78;4.10;;;21.60;68.90;;;;;;6212593;28;82365;-68
2022/03/10 09:09:24;;;;;;;6.18;4.53;;;21.60;69.10;;;;;;6212107;28;81097;-67
2022/03/10 09:12:26;;;;;;;5.10;4.60;;;21.60;69.10;;;;;;6214141;28;82429;-67
2022/03/10 09:15:28;;;;;;;5.10;4.35;;;21.60;69.10;;;;;;6212393;28;82223;-67
2022/03/10 09:18:32;;;;;;;5.40;4.43;;;21.50;69.20;;;;;;6197044;28;81265;-67
2022/03/10 09:21:34;;;;;;;5.18;4.50;;;21.50;69.30;;;;;;6208705;28;81650;-69
2022/03/10 09:24:36;;;;;;;11.45;4.60;;;21.60;69.60;;;;;;6213560;28;81646;-65
2022/03/10 09:27:39;;;;;;;7.40;4.60;;;21.60;71.00;;;;;;6211585;28;82697;-67
2022/03/10 09:30:41;;;;;;;6.88;4.38;;;21.60;70.60;;;;;;6212830;28;81244;-66
2022/03/10 09:33:45;;;;;;;6.43;4.57;;;21.60;71.20;;;;;;6212405;28;82345;-66
2022/03/10 09:36:47;;;;;;;4.95;4.20;;;21.60;70.80;;;;;;6212904;28;81353;-65
2022/03/10 09:39:49;;;;;;;5.95;4.35;;;21.60;71.00;;;;;;6211973;28;82472;-65
2022/03/10 09:42:52;;;;;;;5.85;4.10;;;21.50;71.00;;;;;;6212669;28;82466;-65
2022/03/10 09:45:54;;;;;;;6.38;4.13;;;21.60;71.20;;;;;;6210655;28;81217;-65
2022/03/10 09:48:58;;;;;;;5.25;3.85;;;21.60;71.10;;;;;;6200978;28;82351;-65
2022/03/10 09:52:00;;;;;;;5.35;4.30;;;21.50;71.30;;;;;;6211712;28;82289;-66
2022/03/10 09:55:03;;;;;;;4.93;3.92;;;21.60;71.30;;;;;;6211262;28;81395;-65
2022/03/10 09:58:06;;;;;;;5.05;3.85;;;21.50;71.10;;;;;;6212805;28;81516;-65
2022/03/10 10:01:08;;;;;;;4.57;3.97;;;21.50;71.10;;;;;;6211099;28;82317;-65
2022/03/10 10:04:11;;;;;;;5.00;4.10;;;21.50;71.30;;;;;;6208057;28;81266;-65
2022/03/10 10:07:13;;;;;;;5.43;4.05;;;21.50;71.30;;;;;;6212395;28;82175;-65
2022/03/10 10:10:28;;;;;;;5.18;3.65;;;21.50;71.30;;;;;;6208998;28;82227;-67
2022/03/10 10:13:31;;;;;;;4.32;3.88;;;21.50;71.20;;;;;;6207598;28;82188;-66
2022/03/10 10:16:46;;;;;;;5.35;4.10;;;21.50;71.00;;;;;;6211436;28;82291;-67
2022/03/10 10:19:55;;;;;;;4.03;3.50;;;21.50;71.00;;;;;;6209914;28;82309;-67
2022/03/10 10:22:57;;;;;;;5.03;3.97;;;21.50;71.00;;;;;;6197692;28;81992;-66
2022/03/10 10:26:02;;;;;;;4.18;3.63;;;21.50;70.80;;;;;;6210714;28;82266;-66
2022/03/10 10:29:05;;;;;;;4.05;3.67;;;21.50;70.90;;;;;;6209780;28;82306;-66
2022/03/10 10:32:07;;;;;;;4.68;3.88;;;21.50;70.80;;;;;;6208291;28;81384;-66
2022/03/10 10:35:13;;;;;;;4.38;3.70;;;21.50;70.80;;;;;;6210551;28;82288;-66
2022/03/10 10:38:29;;;;;;;5.25;3.97;;;21.50;70.70;;;;;;6209792;28;82470;-66
2022/03/10 10:41:32;;;;;;;4.13;3.70;;;21.50;70.70;;;;;;6200485;28;82326;-66
2022/03/10 10:44:34;;;;;;;5.13;3.85;;;21.50;71.00;;;;;;6208018;28;82128;-66
2022/03/10 10:48:00;;;;;;;4.15;3.60;;;21.50;70.80;;;;;;6209458;28;82069;-66
2022/03/10 10:51:05;;;;;;;4.00;3.47;;;21.50;71.00;;;;;;6207378;28;82521;-66
2022/03/10 10:54:09;;;;;;;6.93;3.80;;;21.50;70.90;;;;;;6207514;28;82279;-66
2022/03/10 10:57:22;;;;;;;3.80;3.45;;;21.50;71.10;;;;;;6211277;28;82276;-66
2022/03/10 11:00:25;;;;;;;4.63;3.60;;;21.50;71.10;;;;;;6207449;28;82317;-66
2022/03/10 11:03:31;;;;;;;6.47;3.38;;;21.40;71.10;;;;;;6209397;28;81224;-66
2022/03/10 11:06:35;;;;;;;30.40;21.45;;;21.50;71.10;;;;;;6208545;28;82283;-66
2022/03/10 11:09:38;;;;;;;10.63;7.63;;;21.50;71.30;;;;;;6205271;28;83222;-66
2022/03/10 11:12:44;;;;;;;8.45;6.70;;;21.50;72.40;;;;;;6202405;28;82462;-66
2022/03/10 11:15:47;;;;;;;7.00;5.65;;;21.60;71.60;;;;;;6206768;28;82358;-66
2022/03/10 11:18:51;;;;;;;6.65;5.07;;;21.60;71.10;;;;;;6206380;28;81211;-66
2022/03/10 11:22:15;;;;;;;5.63;4.72;;;21.60;70.90;;;;;;6200887;28;82707;-65
2022/03/10 11:25:49;;;;;;;8.32;6.35;;;21.70;70.90;;;;;;6208279;28;82141;-67
2022/03/10 11:28:53;;;;;;;7.05;5.15;;;21.70;73.80;;;;;;6204477;28;81237;-66
2022/03/10 11:31:56;;;;;;;6.82;5.03;;;21.80;72.50;;;;;;6203020;28;82289;-66
2022/03/10 11:35:00;;;;;;;6.72;4.80;;;21.90;76.40;;;;;;6210859;28;82597;-64
2022/03/10 11:38:03;;;;;;;5.72;4.40;;;22.00;75.40;;;;;;6203283;28;82714;-65
2022/03/10 11:41:07;;;;;;;4.88;4.10;;;22.00;73.70;;;;;;6208847;28;81452;-66
2022/03/10 11:44:09;;;;;;;6.30;4.38;;;22.00;72.30;;;;;;6211043;28;82409;-66
2022/03/10 11:47:18;;;;;;;5.28;4.03;;;22.00;71.70;;;;;;6210955;28;81515;-66
2022/03/10 11:50:29;;;;;;;5.05;4.00;;;22.00;71.30;;;;;;6209765;28;82254;-65
2022/03/10 11:53:56;;;;;;;5.05;3.70;;;21.90;71.10;;;;;;6208895;28;82410;-66
2022/03/10 11:57:01;;;;;;;5.15;3.75;;;21.90;71.00;;;;;;6208297;28;82023;-65
2022/03/10 12:00:03;;;;;;;5.40;3.80;;;21.80;70.90;;;;;;6207028;28;82305;-66
2022/03/10 12:03:06;;;;;;;5.18;4.00;;;21.90;71.00;;;;;;6207690;28;82420;-66
2022/03/10 12:06:15;;;;;;;4.80;3.60;;;21.80;70.80;;;;;;6209718;28;82348;-66
2022/03/10 12:09:29;;;;;;;4.00;3.60;;;21.80;70.80;;;;;;6211237;28;81199;-66
2022/03/10 12:12:37;;;;;;;4.30;3.67;;;21.80;70.80;;;;;;6202895;28;81258;-66
2022/03/10 12:15:40;;;;;;;4.43;3.78;;;21.80;70.80;;;;;;6203516;28;82648;-66
2022/03/10 12:18:44;;;;;;;5.07;3.85;;;21.80;70.80;;;;;;6193738;28;82527;-66
2022/03/10 12:21:46;;;;;;;4.22;3.83;;;21.80;70.60;;;;;;6200940;28;82031;-65
2022/03/10 12:24:49;;;;;;;4.15;3.67;;;21.80;70.60;;;;;;6208714;28;82340;-66
2022/03/10 12:27:52;;;;;;;4.00;3.60;;;21.80;70.50;;;;;;6210716;28;82508;-65
2022/03/10 12:31:06;;;;;;;4.03;3.50;;;21.80;70.50;;;;;;6210555;28;82382;-66
2022/03/10 12:34:11;;;;;;;3.80;3.40;;;21.80;70.40;;;;;;6205146;28;82445;-66
2022/03/10 12:37:16;;;;;;;3.80;3.40;;;21.80;70.40;;;;;;6214426;28;82375;-66
2022/03/10 12:40:20;;;;;;;4.07;3.40;;;21.80;70.60;;;;;;6214829;28;81903;-66
2022/03/10 12:43:27;;;;;;;3.70;3.30;;;21.70;70.10;;;;;;6207925;28;82216;-66
2022/03/10 12:46:30;;;;;;;3.65;3.22;;;21.80;71.10;;;;;;6200242;28;82281;-66
2022/03/10 12:49:37;;;;;;;4.47;3.40;;;21.70;70.10;;;;;;6214400;28;81228;-66
2022/03/10 12:52:41;;;;;;;4.65;3.13;;;21.70;70.00;;;;;;6201498;28;82475;-66
2022/03/10 12:55:45;;;;;;;3.67;3.20;;;21.70;70.00;;;;;;6213693;28;84772;-66
2022/03/10 12:58:48;;;;;;;4.47;3.15;;;21.70;69.90;;;;;;6207294;28;82328;-66
2022/03/10 13:01:51;;;;;;;3.88;3.30;;;21.70;69.90;;;;;;6200623;28;84040;-66
2022/03/10 13:04:55;;;;;;;3.85;3.20;;;21.80;69.90;;;;;;6211097;28;84153;-66
2022/03/10 13:08:05;;;;;;;4.05;3.20;;;21.80;69.80;;;;;;6211620;28;85574;-66
2022/03/10 13:11:10;;;;;;;3.38;3.00;;;21.80;69.80;;;;;;6199507;28;84068;-66
2022/03/10 13:14:13;;;;;;;4.28;3.30;;;21.80;69.70;;;;;;6210026;28;82858;-65
2022/03/10 13:17:15;;;;;;;4.15;3.00;;;21.80;69.60;;;;;;6212068;28;83840;-65
2022/03/10 13:20:20;;;;;;;3.65;2.92;;;21.70;69.50;;;;;;6213572;28;84425;-66
2022/03/10 13:23:27;;;;;;;3.10;2.80;;;21.70;69.50;;;;;;6208303;28;83993;-66
2022/03/10 13:26:34;;;;;;;3.10;2.75;;;21.70;69.40;;;;;;6210491;28;84358;-66
2022/03/10 13:29:37;;;;;;;3.15;2.85;;;21.70;69.40;;;;;;6206510;28;83348;-66
2022/03/10 13:32:39;;;;;;;3.95;2.80;;;21.70;69.30;;;;;;6211943;28;83958;-66
2022/03/10 13:35:43;;;;;;;3.33;2.80;;;21.70;69.20;;;;;;6199469;28;83996;-66
2022/03/10 13:38:45;;;;;;;3.90;2.83;;;21.70;69.10;;;;;;6211086;28;85927;-67
2022/03/10 13:41:49;;;;;;;2.90;2.60;;;21.70;69.10;;;;;;6198089;28;83962;-66
2022/03/10 13:45:02;;;;;;;2.83;2.50;;;21.70;69.00;;;;;;6207676;28;83998;-66
2022/03/10 13:48:04;;;;;;;3.30;2.75;;;21.70;69.10;;;;;;6202658;28;84073;-66
2022/03/10 13:51:06;;;;;;;3.80;3.00;;;21.70;68.90;;;;;;6210134;28;84027;-66
2022/03/10 13:54:09;;;;;;;3.97;2.70;;;21.70;68.90;;;;;;6203652;28;82898;-64
2022/03/10 13:57:14;;;;;;;2.63;2.42;;;21.70;68.80;;;;;;6207333;28;84042;-64
2022/03/10 14:00:17;;;;;;;3.50;2.75;;;21.70;68.80;;;;;;6206708;28;82511;-64
2022/03/10 14:03:22;;;;;;;2.53;2.33;;;21.70;68.80;;;;;;6209035;28;82828;-64
2022/03/10 14:06:24;;;;;;;2.80;2.53;;;21.70;68.70;;;;;;6197789;28;82877;-65
2022/03/10 14:09:27;;;;;;;3.28;2.70;;;21.70;68.70;;;;;;6209795;28;84634;-64
2022/03/10 14:12:32;;;;;;;2.55;2.35;;;21.70;68.60;;;;;;6194918;28;84125;-64
2022/03/10 14:15:36;;;;;;;2.97;2.40;;;21.70;68.50;;;;;;6207730;28;82655;-64
2022/03/10 14:18:45;;;;;;;2.85;2.33;;;21.70;68.40;;;;;;6199985;28;84136;-64
2022/03/10 14:21:51;;;;;;;5.55;2.70;;;21.70;67.70;;;;;;6209988;28;82932;-64
2022/03/10 14:24:57;;;;;;;4.35;2.50;;;21.70;67.40;;;;;;6211745;28;84118;-64
2022/03/10 14:28:08;;;;;;;5.15;2.40;;;21.70;67.30;;;;;;6206472;28;82691;-64
2022/03/10 14:31:13;;;;;;;3.88;2.30;;;21.70;67.00;;;;;;6209984;28;83288;-64
2022/03/10 14:34:16;;;;;;;2.90;2.30;;;21.70;66.90;;;;;;6210003;28;84492;-64
2022/03/10 14:37:19;;;;;;;2.63;2.40;;;21.70;67.70;;;;;;6206088;28;84367;-64
2022/03/10 14:40:21;;;;;;;3.17;2.13;;;21.70;66.90;;;;;;6202825;28;85167;-64
2022/03/10 14:43:24;;;;;;;2.83;2.20;;;21.70;66.90;;;;;;6209149;28;83943;-65
2022/03/10 14:49:46;;;;;;;5.63;2.45;;;21.70;67.00;;;;;;6203763;28;83521;-64
2022/03/10 14:52:48;;;;;;;2.88;2.35;;;21.70;67.10;;;;;;6196641;28;85638;-64
2022/03/10 14:55:50;;;;;;;3.47;2.13;;;21.60;67.10;;;;;;6207528;28;84193;-64
2022/03/10 14:58:53;;;;;;;3.03;2.33;;;21.70;67.10;;;;;;6202391;28;83215;-65
2022/03/10 15:01:56;;;;;;;3.03;2.35;;;21.60;67.00;;;;;;6202137;28;83551;-64
2022/03/10 15:04:59;;;;;;;2.83;2.05;;;21.60;67.00;;;;;;6204741;28;83993;-65
2022/03/10 15:08:19;;;;;;;2.17;1.98;;;21.70;67.00;;;;;;6206695;28;83009;-65
2022/03/10 15:11:21;;;;;;;3.47;2.20;;;21.60;66.90;;;;;;6205878;28;85313;-64
2022/03/10 15:14:25;;;;;;;3.40;2.20;;;21.60;66.90;;;;;;6205002;28;83997;-66
2022/03/10 15:17:28;;;;;;;3.70;2.20;;;21.60;66.90;;;;;;6207488;28;82024;-66
2022/03/10 15:20:31;;;;;;;3.30;2.20;;;21.60;66.90;;;;;;6206253;28;82035;-66
2022/03/10 15:26:55;;;;;;;2.40;2.20;;;21.60;66.90;;;;;;6193814;28;82173;-67
2022/03/10 15:30:00;;;;;;;2.95;2.10;;;21.60;66.70;;;;;;6205303;28;83535;-66
2022/03/10 15:33:04;;;;;;;3.50;2.10;;;21.50;66.60;;;;;;6206031;28;82247;-67
2022/03/10 15:36:07;;;;;;;3.05;2.40;;;21.60;66.70;;;;;;6197545;28;82884;-66
2022/03/10 15:39:11;;;;;;;2.47;2.10;;;21.60;66.60;;;;;;6199661;28;81917;-67
2022/03/10 15:42:13;;;;;;;2.47;2.15;;;21.60;66.60;;;;;;6203896;28;84260;-67
2022/03/10 15:45:17;;;;;;;3.17;2.30;;;21.60;66.60;;;;;;6204473;28;84082;-66
2022/03/10 15:48:19;;;;;;;2.50;2.30;;;21.60;66.60;;;;;;6191492;28;84180;-67
2022/03/10 15:51:26;;;;;;;2.40;2.20;;;21.60;67.40;;;;;;6195640;28;84256;-67
2022/03/10 15:54:28;;;;;;;2.95;2.40;;;21.60;66.60;;;;;;6204303;28;84261;-67
2022/03/10 15:57:31;;;;;;;3.08;2.20;;;21.60;66.60;;;;;;6204559;28;83012;-67
2022/03/10 16:00:34;;;;;;;2.47;2.25;;;21.60;66.50;;;;;;6204240;28;82948;-66
2022/03/10 16:03:36;;;;;;;2.58;2.00;;;21.60;66.50;;;;;;6206178;28;82339;-67
2022/03/10 16:06:39;;;;;;;2.75;2.05;;;21.60;66.40;;;;;;6204777;28;84257;-66